createdAt,value
2023-08-23T00:00:39.384Z,70.82
2023-08-23T00:03:07.282Z,70.69
2023-08-23T00:05:35.134Z,71.13
2023-08-23T00:08:02.955Z,70.85
2023-08-23T00:10:32.149Z,70.54
2023-08-23T00:13:00.712Z,70.83
2023-08-23T00:15:28.446Z,71.43
2023-08-23T00:17:56.305Z,71.32
2023-08-23T00:20:24.070Z,71.20
2023-08-23T00:22:51.921Z,71.34
2023-08-23T00:25:19.738Z,71.05
2023-08-23T00:27:56.855Z,71.52
2023-08-23T00:30:31.382Z,71.18
2023-08-23T00:32:59.243Z,72.04
2023-08-23T00:35:27.016Z,71.71
2023-08-23T00:37:54.742Z,71.39
2023-08-23T00:40:22.525Z,71.46
2023-08-23T00:42:51.658Z,71.12
2023-08-23T00:45:19.365Z,71.38
2023-08-23T00:47:47.532Z,71.02
2023-08-23T00:50:15.432Z,71.17
2023-08-23T00:52:52.592Z,71.20
2023-08-23T00:55:21.177Z,71.02
2023-08-23T00:57:49.086Z,70.85
2023-08-23T01:00:18.757Z,71.00
2023-08-23T01:02:47.649Z,70.75
2023-08-23T01:05:15.819Z,70.60
2023-08-23T01:07:51.495Z,70.46
2023-08-23T01:10:26.043Z,70.65
2023-08-23T01:13:01.265Z,70.71
2023-08-23T01:15:31.681Z,70.95
2023-08-23T01:18:00.757Z,71.05
2023-08-23T01:20:29.377Z,71.04
2023-08-23T01:23:08.595Z,70.73
2023-08-23T01:25:36.291Z,70.69
2023-08-23T01:28:04.364Z,71.27
2023-08-23T01:30:32.668Z,71.08
2023-08-23T01:33:03.302Z,71.25
2023-08-23T01:35:39.323Z,71.13
2023-08-23T01:38:09.314Z,70.90
2023-08-23T01:40:37.621Z,71.04
2023-08-23T01:43:05.762Z,70.92
2023-08-23T01:45:33.546Z,70.73
2023-08-23T01:48:01.467Z,71.07
2023-08-23T01:50:29.334Z,71.18
2023-08-23T01:52:57.093Z,71.09
2023-08-23T01:55:26.811Z,70.95
2023-08-23T01:57:54.589Z,71.03
2023-08-23T02:00:22.419Z,71.12
2023-08-23T02:02:50.278Z,71.17
2023-08-23T02:05:18.258Z,71.29
2023-08-23T02:07:45.969Z,71.28
2023-08-23T02:10:13.999Z,71.30
2023-08-23T02:12:44.534Z,71.21
2023-08-23T02:15:12.318Z,70.72
2023-08-23T02:17:40.162Z,71.04
2023-08-23T02:20:08.943Z,70.90
2023-08-23T02:22:36.710Z,70.75
2023-08-23T02:25:04.797Z,71.03
2023-08-23T02:27:32.550Z,71.37
2023-08-23T02:30:01.699Z,71.37
2023-08-23T02:32:29.558Z,71.42
2023-08-23T02:34:57.618Z,71.31
2023-08-23T02:37:25.376Z,71.11
2023-08-23T02:39:53.186Z,70.98
2023-08-23T02:42:20.973Z,71.28
2023-08-23T02:44:48.802Z,70.81
2023-08-23T02:47:17.983Z,71.28
2023-08-23T02:49:45.878Z,71.02
2023-08-23T02:52:13.679Z,70.95
2023-08-23T02:54:41.434Z,70.97
2023-08-23T02:57:09.223Z,70.91
2023-08-23T02:59:37.011Z,71.15
2023-08-23T03:02:04.746Z,71.01
2023-08-23T03:04:33.943Z,71.46
2023-08-23T03:07:01.729Z,71.43
2023-08-23T03:09:29.479Z,71.28
2023-08-23T03:11:57.301Z,71.21
2023-08-23T03:14:25.085Z,71.38
2023-08-23T03:16:52.911Z,71.27
2023-08-23T03:19:20.681Z,71.52
2023-08-23T03:21:49.988Z,71.75
2023-08-23T03:24:17.772Z,71.06
2023-08-23T03:26:45.540Z,71.04
2023-08-23T03:29:13.241Z,71.10
2023-08-23T03:31:41.172Z,70.92
2023-08-23T03:34:09.243Z,71.14
2023-08-23T03:36:36.991Z,71.07
2023-08-23T03:39:06.222Z,70.95
2023-08-23T03:41:34.018Z,71.07
2023-08-23T03:44:01.751Z,70.84
2023-08-23T03:46:29.655Z,71.06
2023-08-23T03:48:57.449Z,71.08
2023-08-23T03:51:25.242Z,70.95
2023-08-23T03:53:52.993Z,70.83
2023-08-23T03:56:22.143Z,71.17
2023-08-23T03:58:50.488Z,71.03
2023-08-23T04:01:18.289Z,70.85
2023-08-23T04:03:46.202Z,70.65
2023-08-23T04:06:14.093Z,70.58
2023-08-23T04:08:41.850Z,70.96
2023-08-23T04:11:09.639Z,70.91
2023-08-23T04:13:38.734Z,71.02
2023-08-23T04:16:06.576Z,70.78
2023-08-23T04:18:34.336Z,70.66
2023-08-23T04:21:02.541Z,71.13
2023-08-23T04:23:30.518Z,71.46
2023-08-23T04:25:58.368Z,71.80
2023-08-23T04:28:26.224Z,71.46
2023-08-23T04:30:55.465Z,71.62
2023-08-23T04:33:23.359Z,71.60
2023-08-23T04:35:51.989Z,71.48
2023-08-23T04:38:19.742Z,71.54
2023-08-23T04:40:47.494Z,71.60
2023-08-23T04:43:15.258Z,71.90
2023-08-23T04:45:43.154Z,71.74
2023-08-23T04:48:13.253Z,71.85
2023-08-23T04:50:41.114Z,72.03
2023-08-23T04:53:08.901Z,72.23
2023-08-23T04:55:36.712Z,72.50
2023-08-23T04:58:04.460Z,72.08
2023-08-23T05:00:32.191Z,72.10
2023-08-23T05:02:59.965Z,72.03
2023-08-23T05:05:29.184Z,72.30
2023-08-23T05:07:56.992Z,72.43
2023-08-23T05:10:24.905Z,72.28
2023-08-23T05:12:53.141Z,72.26
2023-08-23T05:15:21.001Z,72.36
2023-08-23T05:17:48.925Z,72.22
2023-08-23T05:20:18.852Z,72.53
2023-08-23T05:22:48.020Z,72.71
2023-08-23T05:25:15.861Z,72.59
2023-08-23T05:27:43.657Z,72.75
2023-08-23T05:30:12.342Z,72.98
2023-08-23T05:32:40.128Z,73.05
2023-08-23T05:35:08.984Z,73.58
2023-08-23T05:37:36.723Z,73.70
2023-08-23T05:40:08.971Z,73.56
2023-08-23T05:42:36.692Z,73.51
2023-08-23T05:45:04.811Z,73.78
2023-08-23T05:47:32.606Z,73.78
2023-08-23T05:50:00.423Z,74.08
2023-08-23T05:52:28.104Z,74.06
2023-08-23T05:54:55.795Z,74.39
2023-08-23T05:57:25.099Z,74.60
2023-08-23T05:59:52.843Z,74.81
2023-08-23T06:02:20.684Z,74.81
2023-08-23T06:04:48.769Z,75.07
2023-08-23T06:07:16.824Z,75.40
2023-08-23T06:09:44.630Z,75.75
2023-08-23T06:12:12.451Z,75.96
2023-08-23T06:14:41.725Z,76.26
2023-08-23T06:17:09.567Z,76.99
2023-08-23T06:19:37.559Z,77.85
2023-08-23T06:22:05.421Z,78.63
2023-08-23T06:24:33.351Z,79.19
2023-08-23T06:27:01.210Z,79.54
2023-08-23T06:29:29.098Z,79.46
2023-08-23T06:31:58.302Z,79.41
2023-08-23T06:34:26.239Z,79.19
2023-08-23T06:36:53.980Z,79.70
2023-08-23T06:39:32.517Z,79.99
2023-08-23T06:42:00.865Z,80.38
2023-08-23T06:44:28.731Z,80.55
2023-08-23T06:46:57.888Z,80.96
2023-08-23T06:49:25.760Z,81.04
2023-08-23T06:51:53.618Z,81.40
2023-08-23T06:54:21.406Z,81.55
2023-08-23T06:56:49.255Z,82.26
2023-08-23T06:59:17.069Z,82.29
2023-08-23T07:01:44.972Z,82.41
2023-08-23T07:04:16.270Z,82.38
2023-08-23T07:06:44.328Z,82.80
2023-08-23T07:09:12.563Z,83.15
2023-08-23T07:11:40.717Z,83.02
2023-08-23T07:14:10.053Z,83.40
2023-08-23T07:16:38.018Z,83.66
2023-08-23T07:19:06.013Z,83.83
2023-08-23T07:21:35.198Z,83.75
2023-08-23T07:24:03.977Z,83.90
2023-08-23T07:26:31.855Z,84.04
2023-08-23T07:28:59.672Z,84.33
2023-08-23T07:31:27.382Z,83.08
2023-08-23T07:33:55.160Z,83.99
2023-08-23T07:36:23.099Z,83.85
2023-08-23T07:38:52.383Z,83.80
2023-08-23T07:41:20.239Z,83.91
2023-08-23T07:43:48.091Z,83.70
2023-08-23T07:46:17.659Z,83.06
2023-08-23T07:48:45.557Z,82.78
2023-08-23T07:51:13.391Z,83.57
2023-08-23T07:53:43.070Z,81.89
2023-08-23T07:56:15.476Z,82.62
2023-08-23T07:58:44.286Z,81.87
2023-08-23T08:01:12.208Z,81.40
2023-08-23T08:03:40.613Z,82.10
2023-08-23T08:06:08.956Z,81.08
2023-08-23T08:08:40.401Z,80.47
2023-08-23T08:11:08.416Z,79.88
2023-08-23T08:13:37.640Z,77.95
2023-08-23T08:16:08.903Z,77.94
2023-08-23T08:18:36.878Z,78.84
2023-08-23T08:21:05.458Z,79.39
2023-08-23T08:23:34.513Z,79.27
2023-08-23T08:26:02.753Z,78.87
2023-08-23T08:28:30.538Z,78.23
2023-08-23T08:30:59.862Z,77.85
2023-08-23T08:33:27.603Z,77.57
2023-08-23T08:35:55.423Z,75.92
2023-08-23T08:38:23.683Z,75.67
2023-08-23T08:40:52.034Z,74.23
2023-08-23T08:43:20.002Z,75.17
2023-08-23T08:45:48.179Z,75.34
2023-08-23T08:48:17.768Z,75.20
2023-08-23T08:50:46.228Z,73.96
2023-08-23T08:53:17.275Z,75.31
2023-08-23T08:55:45.542Z,75.10
2023-08-23T08:58:16.777Z,74.71
2023-08-23T09:00:45.582Z,75.14
2023-08-23T09:03:13.536Z,73.01
2023-08-23T09:05:43.111Z,73.62
2023-08-23T09:08:11.859Z,72.84
2023-08-23T09:10:39.561Z,73.02
2023-08-23T09:13:10.195Z,73.34
2023-08-23T09:15:38.218Z,71.04
2023-08-23T09:18:07.074Z,71.85
2023-08-23T09:20:35.161Z,70.64
2023-08-23T09:23:06.744Z,71.38
2023-08-23T09:25:34.612Z,70.84
2023-08-23T09:28:02.375Z,70.29
2023-08-23T09:30:30.365Z,71.42
2023-08-23T09:32:59.801Z,68.71
2023-08-23T09:35:28.514Z,69.25
2023-08-23T09:37:56.462Z,71.07
2023-08-23T09:40:27.788Z,68.92
2023-08-23T09:42:59.244Z,68.49
2023-08-23T09:45:28.522Z,66.93
2023-08-23T09:47:58.117Z,66.61
2023-08-23T09:50:27.158Z,68.27
2023-08-23T09:53:00.384Z,67.61
2023-08-23T09:55:31.159Z,66.13
2023-08-23T09:57:59.113Z,66.68
2023-08-23T10:00:28.292Z,65.81
2023-08-23T10:02:57.841Z,64.93
2023-08-23T10:05:28.210Z,64.23
2023-08-23T10:07:57.869Z,66.31
2023-08-23T10:10:26.691Z,64.80
2023-08-23T10:12:58.352Z,64.03
2023-08-23T10:15:29.559Z,63.18
2023-08-23T10:17:57.785Z,63.51
2023-08-23T10:20:25.836Z,63.03
2023-08-23T10:22:54.917Z,63.36
2023-08-23T10:25:23.398Z,63.87
2023-08-23T10:27:53.936Z,61.99
2023-08-23T10:30:27.837Z,62.94
2023-08-23T10:32:56.582Z,62.17
2023-08-23T10:35:25.599Z,61.95
2023-08-23T10:37:55.205Z,61.80
2023-08-23T10:40:23.602Z,62.20
2023-08-23T10:42:52.039Z,62.71
2023-08-23T10:45:19.974Z,64.81
2023-08-23T10:47:52.006Z,63.74
2023-08-23T10:50:21.066Z,63.20
2023-08-23T10:52:49.991Z,61.29
2023-08-23T10:55:18.226Z,59.44
2023-08-23T10:57:46.754Z,59.46
2023-08-23T11:00:15.901Z,59.66
2023-08-23T11:02:44.006Z,60.04
2023-08-23T11:05:13.302Z,59.48
2023-08-23T14:27:15.314Z,58.64
2023-08-23T14:29:43.188Z,58.23
2023-08-23T14:32:11.693Z,57.74
2023-08-23T14:34:39.516Z,57.71
2023-08-23T14:37:07.337Z,52.05
2023-08-23T14:39:34.901Z,56.38
2023-08-23T14:42:02.407Z,54.77
2023-08-23T14:44:31.343Z,56.30
2023-08-23T14:46:59.873Z,55.87
2023-08-23T14:49:27.660Z,59.33
2023-08-23T14:51:55.279Z,59.33
2023-08-23T14:54:23.155Z,55.96
2023-08-23T14:56:50.768Z,55.03
2023-08-23T14:59:18.301Z,57.98
2023-08-23T15:03:29.298Z,52.89
2023-08-23T15:05:57.360Z,53.23
2023-08-23T15:08:25.682Z,51.35
2023-08-23T15:10:57.835Z,51.50
2023-08-23T15:13:26.600Z,50.38
2023-08-23T15:15:59.106Z,49.52
2023-08-23T15:18:26.900Z,49.66
2023-08-23T15:20:56.227Z,49.27
2023-08-23T15:23:24.312Z,48.34
2023-08-23T15:25:52.140Z,48.58
2023-08-23T15:28:19.965Z,47.96
2023-08-23T15:30:47.795Z,47.52
2023-08-23T15:33:15.691Z,47.71
2023-08-23T15:35:43.552Z,47.11
2023-08-23T15:38:12.720Z,47.28
2023-08-23T15:40:40.698Z,46.34
2023-08-23T15:43:08.426Z,47.81
2023-08-23T15:45:36.259Z,47.91
2023-08-23T15:48:04.408Z,47.41
2023-08-23T15:50:32.425Z,46.82
2023-08-23T15:53:00.227Z,46.45
2023-08-23T15:55:30.819Z,47.16
2023-08-23T15:57:58.582Z,48.00
2023-08-23T16:00:26.495Z,47.46
2023-08-23T16:02:54.540Z,47.46
2023-08-23T16:05:22.399Z,47.29
2023-08-23T16:07:50.485Z,48.63
2023-08-23T16:10:18.690Z,46.62
2023-08-23T16:12:47.732Z,46.34
2023-08-23T16:15:15.457Z,46.61
2023-08-23T16:17:43.177Z,47.64
2023-08-23T16:20:32.411Z,47.64
2023-08-23T16:23:00.179Z,47.10
2023-08-23T16:25:27.972Z,48.29
2023-08-23T16:27:55.789Z,49.23
2023-08-23T16:30:23.663Z,50.26
2023-08-23T16:32:51.793Z,48.45
2023-08-23T16:35:19.911Z,49.31
2023-08-23T16:37:49.073Z,48.46
2023-08-23T16:40:16.764Z,48.58
2023-08-23T16:42:44.522Z,47.71
2023-08-23T16:45:12.558Z,47.58
2023-08-23T16:47:40.288Z,47.81
2023-08-23T16:50:09.006Z,49.36
2023-08-23T16:52:36.845Z,48.28
2023-08-23T16:55:07.334Z,48.88
2023-08-23T16:57:36.444Z,47.44
2023-08-23T17:00:07.702Z,48.48
2023-08-23T17:02:35.658Z,48.32
2023-08-23T17:05:03.764Z,48.27
2023-08-23T17:07:31.573Z,48.77
2023-08-23T17:09:59.606Z,49.55
2023-08-23T17:12:28.868Z,48.44
2023-08-23T17:14:56.621Z,48.41
2023-08-23T17:17:26.427Z,50.03
2023-08-23T17:19:54.265Z,50.47
2023-08-23T17:22:23.008Z,49.31
2023-08-23T17:24:50.842Z,49.08
2023-08-23T17:27:18.690Z,49.80
2023-08-23T17:29:47.818Z,49.69
2023-08-23T17:32:15.558Z,49.18
2023-08-23T17:34:43.577Z,48.99
2023-08-23T17:37:11.440Z,49.77
2023-08-23T17:39:39.165Z,48.66
2023-08-23T17:42:07.245Z,48.56
2023-08-23T17:44:34.968Z,48.94
2023-08-23T17:47:06.534Z,50.06
2023-08-23T17:49:34.362Z,51.15
2023-08-23T17:52:02.623Z,52.37
2023-08-23T17:54:30.446Z,52.79
2023-08-23T17:56:59.813Z,53.46
2023-08-23T17:59:29.466Z,53.96
2023-08-23T18:01:57.783Z,54.58
2023-08-23T18:04:27.378Z,54.61
2023-08-23T18:06:55.312Z,55.09
2023-08-23T18:09:23.157Z,55.21
2023-08-23T18:11:50.939Z,55.12
2023-08-23T18:14:18.696Z,55.59
2023-08-23T18:16:46.579Z,55.67
2023-08-23T18:19:14.391Z,55.72
2023-08-23T18:21:43.594Z,55.79
2023-08-23T18:24:11.423Z,55.96
2023-08-23T18:26:39.174Z,56.54
2023-08-23T18:29:06.935Z,56.75
2023-08-23T18:31:34.838Z,57.00
2023-08-23T18:34:02.652Z,57.03
2023-08-23T18:36:30.460Z,57.24
2023-08-23T18:38:59.540Z,57.33
2023-08-23T18:41:27.288Z,57.54
2023-08-23T18:43:56.449Z,57.28
2023-08-23T18:46:24.252Z,57.65
2023-08-23T18:48:52.090Z,57.43
2023-08-23T18:51:19.807Z,57.48
2023-08-23T18:53:48.225Z,57.66
2023-08-23T18:56:17.373Z,57.92
2023-08-23T18:58:45.096Z,57.92
2023-08-23T19:01:12.888Z,57.86
2023-08-23T19:03:40.819Z,58.40
2023-08-23T19:06:08.754Z,58.69
2023-08-23T19:11:02.158Z,58.86
2023-08-23T19:13:29.887Z,59.28
2023-08-23T19:15:57.726Z,59.41
2023-08-23T19:18:25.545Z,59.63
2023-08-23T19:20:53.466Z,60.15
2023-08-23T19:23:21.249Z,60.25
2023-08-23T19:25:49.000Z,60.53
2023-08-23T19:28:18.402Z,60.95
2023-08-23T19:30:46.343Z,60.93
2023-08-23T19:33:14.176Z,60.73
2023-08-23T19:35:43.072Z,61.04
2023-08-23T19:38:11.150Z,61.10
2023-08-23T19:40:39.080Z,61.37
2023-08-23T19:43:07.063Z,61.55
2023-08-23T19:45:36.354Z,61.49
2023-08-23T19:48:20.536Z,61.44
2023-08-23T19:50:52.307Z,61.81
2023-08-23T19:53:20.117Z,62.14
2023-08-23T19:55:47.935Z,61.74
2023-08-23T19:58:16.742Z,61.91
2023-08-23T20:00:45.959Z,61.98
2023-08-23T20:03:13.932Z,62.53
2023-08-23T20:05:44.445Z,62.46
2023-08-23T20:08:12.370Z,62.76
2023-08-23T20:10:40.131Z,62.97
2023-08-23T20:13:07.937Z,62.89
2023-08-23T20:15:35.775Z,63.25
2023-08-23T20:18:05.637Z,63.14
2023-08-23T20:20:35.024Z,63.10
2023-08-23T20:23:02.867Z,63.37
2023-08-23T20:25:31.272Z,63.14
2023-08-23T20:27:59.070Z,64.03
2023-08-23T20:30:26.846Z,64.28
2023-08-23T20:32:54.607Z,64.40
2023-08-23T20:35:24.506Z,64.43
2023-08-23T20:37:52.449Z,64.82
2023-08-23T20:40:21.757Z,65.04
2023-08-23T20:42:50.347Z,65.73
2023-08-23T20:45:18.229Z,65.81
2023-08-23T20:47:46.161Z,65.12
2023-08-23T20:50:14.309Z,64.87
2023-08-23T20:52:45.258Z,65.10
2023-08-23T20:55:13.073Z,65.06
2023-08-23T20:57:41.045Z,65.09
2023-08-23T21:00:11.805Z,65.62
2023-08-23T21:02:39.728Z,65.73
2023-08-23T21:05:08.086Z,65.25
2023-08-23T21:07:36.968Z,65.51
2023-08-23T21:10:06.923Z,65.92
2023-08-23T21:12:36.345Z,65.61
2023-08-23T21:15:04.276Z,65.91
2023-08-23T21:17:32.169Z,65.75
2023-08-23T21:19:59.940Z,65.95
2023-08-23T21:22:27.758Z,65.71
2023-08-23T21:24:55.469Z,65.91
2023-08-23T21:27:24.709Z,65.83
2023-08-23T21:29:52.586Z,66.15
2023-08-23T21:32:20.396Z,65.99
2023-08-23T21:34:48.150Z,66.51
2023-08-23T21:37:15.938Z,66.82
2023-08-23T21:39:44.879Z,66.33
2023-08-23T21:42:12.687Z,66.56
2023-08-23T21:44:43.573Z,67.01
2023-08-23T21:47:12.746Z,66.62
2023-08-23T21:49:40.534Z,66.59
2023-08-23T21:52:08.327Z,67.25
2023-08-23T21:54:36.154Z,67.25
2023-08-23T21:57:04.460Z,67.44
2023-08-23T21:59:32.278Z,67.45
2023-08-23T22:02:01.349Z,67.48
2023-08-23T22:04:29.125Z,67.59
2023-08-23T22:06:56.966Z,67.95
2023-08-23T22:09:24.726Z,67.83
2023-08-23T22:11:53.086Z,68.23
2023-08-23T22:14:20.883Z,68.02
2023-08-23T22:16:48.634Z,68.34
2023-08-23T22:19:17.752Z,68.56
2023-08-23T22:21:45.464Z,68.92
2023-08-23T22:24:13.239Z,69.51
2023-08-23T22:26:40.952Z,69.53
2023-08-23T22:29:08.680Z,69.06
2023-08-23T22:31:36.555Z,69.17
2023-08-23T22:34:04.389Z,69.56
2023-08-23T22:36:33.591Z,69.07
2023-08-23T22:39:01.273Z,69.34
2023-08-23T22:41:28.988Z,69.34
2023-08-23T22:43:56.872Z,69.43
2023-08-23T22:46:32.209Z,69.73
2023-08-23T22:49:00.334Z,69.87
2023-08-23T22:51:28.142Z,70.01
2023-08-23T22:53:57.660Z,70.39
2023-08-23T22:56:25.479Z,70.29
2023-08-23T22:58:53.203Z,70.45
2023-08-23T23:01:20.961Z,70.25
2023-08-23T23:03:48.956Z,70.85
2023-08-23T23:06:16.798Z,70.35
2023-08-23T23:08:45.093Z,70.59
2023-08-23T23:11:14.269Z,70.38
2023-08-23T23:13:41.959Z,70.98
2023-08-23T23:16:09.774Z,71.22
2023-08-23T23:18:37.653Z,71.28
2023-08-23T23:21:07.066Z,70.99
2023-08-23T23:23:35.055Z,70.98
2023-08-23T23:26:02.911Z,71.30
2023-08-23T23:28:32.072Z,71.38
2023-08-23T23:31:06.511Z,71.40
2023-08-23T23:33:34.444Z,71.88
2023-08-23T23:36:02.240Z,71.47
2023-08-23T23:38:30.598Z,71.47
2023-08-23T23:40:58.374Z,71.29
2023-08-23T23:43:26.121Z,71.59
2023-08-23T23:45:55.236Z,71.50
2023-08-23T23:48:23.009Z,71.57
2023-08-23T23:50:50.799Z,71.93
2023-08-23T23:53:18.815Z,71.84
2023-08-23T23:55:46.715Z,72.08
2023-08-23T23:58:14.496Z,71.99
